Time;durP1;ratioP1;P1;durP2;ratioP2;P2;SDS_P1;SDS_P2;PMS_P1;PMS_P2;Temp;Humidity;BMP_temperature;BMP_pressure;BME280_temperature;BME280_humidity;BME280_pressure;Samples;Min_cycle;Max_cycle;Signal;HPM_P1;HPM_P2
2023/10/29 00:01:39;;;;;;;27.42;12.90;;;;;;;;;;4957306;28;20027;-63
2023/10/29 00:04:05;;;;;;;25.70;13.23;;;;;;;;;;4961250;28;20378;-63
2023/10/29 00:06:30;;;;;;;24.98;11.77;;;;;;;;;;4976118;28;20117;-64
2023/10/29 00:08:56;;;;;;;22.65;12.23;;;;;;;;;;4976272;28;20038;-62
2023/10/29 00:11:21;;;;;;;25.65;12.38;;;;;;;;;;4976127;28;20042;-61
2023/10/29 00:13:47;;;;;;;26.00;11.93;;;;;;;;;;4976367;28;20031;-61
2023/10/29 00:16:13;;;;;;;24.15;11.90;;;;;;;;;;4976150;28;20049;-62
2023/10/29 00:18:39;;;;;;;21.30;11.02;;;;;;;;;;4976183;28;20065;-62
2023/10/29 00:21:04;;;;;;;22.17;11.15;;;;;;;;;;4975976;28;20031;-62
2023/10/29 00:23:30;;;;;;;20.67;10.68;;;;;;;;;;4975925;28;20019;-62
2023/10/29 00:25:55;;;;;;;21.10;11.25;;;;;;;;;;4975914;28;20023;-62
2023/10/29 00:28:20;;;;;;;23.60;10.45;;;;;;;;;;4975902;28;20023;-62
2023/10/29 00:30:46;;;;;;;20.25;9.93;;;;;;;;;;4975659;28;20026;-61
2023/10/29 00:33:11;;;;;;;23.90;12.32;;;;;;;;;;4975897;28;20027;-63
2023/10/29 00:35:37;;;;;;;22.65;10.20;;;;;;;;;;4975390;28;20027;-62
2023/10/29 00:38:02;;;;;;;20.77;11.00;;;;;;;;;;4962660;28;20031;-62
2023/10/29 00:40:30;;;;;;;17.58;9.85;;;;;;;;;;4956625;28;20023;-62
2023/10/29 00:42:57;;;;;;;18.98;9.90;;;;;;;;;;4955542;28;20027;-62
2023/10/29 00:45:23;;;;;;;18.52;9.77;;;;;;;;;;4956379;28;20031;-62
2023/10/29 00:47:50;;;;;;;18.45;10.15;;;;;;;;;;4956420;28;20057;-62
2023/10/29 00:50:15;;;;;;;17.27;9.55;;;;;;;;;;4955915;28;20031;-62
2023/10/29 00:52:41;;;;;;;22.75;9.15;;;;;;;;;;4956312;28;20027;-62
2023/10/29 00:55:07;;;;;;;19.23;10.23;;;;;;;;;;4956239;28;20034;-60
2023/10/29 00:57:32;;;;;;;18.90;9.85;;;;;;;;;;4956097;28;20083;-62
2023/10/29 00:59:58;;;;;;;18.13;9.43;;;;;;;;;;4956063;28;20458;-62
2023/10/29 01:02:24;;;;;;;19.73;9.73;;;;;;;;;;4956016;28;20023;-61
2023/10/29 01:04:50;;;;;;;17.95;9.90;;;;;;;;;;4966174;28;20137;-61
2023/10/29 01:07:17;;;;;;;20.48;9.80;;;;;;;;;;4975182;28;20121;-62
2023/10/29 01:09:43;;;;;;;20.08;9.30;;;;;;;;;;4975239;28;20026;-62
2023/10/29 01:12:16;;;;;;;21.10;11.10;;;;;;;;;;4974893;28;20108;-62
2023/10/29 01:14:41;;;;;;;23.05;10.88;;;;;;;;;;4975255;28;20035;-61
2023/10/29 01:17:07;;;;;;;22.77;10.43;;;;;;;;;;4975087;28;20420;-63
2023/10/29 01:19:32;;;;;;;23.95;11.85;;;;;;;;;;4974838;28;20058;-62
2023/10/29 01:21:58;;;;;;;24.05;10.77;;;;;;;;;;4974895;28;20027;-61
2023/10/29 01:24:24;;;;;;;20.42;8.75;;;;;;;;;;4974973;28;20586;-64
2023/10/29 01:26:49;;;;;;;19.85;9.52;;;;;;;;;;4975052;28;20059;-61
2023/10/29 01:29:15;;;;;;;20.85;10.60;;;;;;;;;;4974684;28;20011;-61
2023/10/29 01:31:41;;;;;;;18.15;9.45;;;;;;;;;;4974649;28;20046;-61
2023/10/29 01:34:06;;;;;;;19.63;10.25;;;;;;;;;;4974217;28;20023;-61
2023/10/29 01:36:32;;;;;;;18.55;9.23;;;;;;;;;;4973674;28;20388;-61
2023/10/29 01:38:58;;;;;;;18.67;9.30;;;;;;;;;;4955416;28;20073;-61
2023/10/29 01:41:24;;;;;;;18.23;9.63;;;;;;;;;;4955425;28;20095;-61
2023/10/29 01:43:49;;;;;;;20.38;9.95;;;;;;;;;;4955520;28;20033;-61
2023/10/29 01:46:15;;;;;;;16.75;9.23;;;;;;;;;;4955223;28;20027;-62
2023/10/29 01:48:40;;;;;;;16.13;8.43;;;;;;;;;;4966582;28;20054;-64
2023/10/29 01:51:06;;;;;;;15.38;8.68;;;;;;;;;;4974438;28;20480;-64
2023/10/29 01:53:32;;;;;;;15.82;8.75;;;;;;;;;;4974148;28;20089;-61
2023/10/29 01:55:57;;;;;;;15.77;9.07;;;;;;;;;;4974360;28;20425;-62
2023/10/29 01:58:22;;;;;;;17.08;9.30;;;;;;;;;;4974436;28;20030;-64
2023/10/29 02:00:48;;;;;;;13.68;8.05;;;;;;;;;;4974267;28;20039;-64
2023/10/29 02:03:14;;;;;;;15.35;8.60;;;;;;;;;;4974073;28;20027;-65
2023/10/29 02:05:39;;;;;;;16.83;8.60;;;;;;;;;;4973883;28;20049;-62
2023/10/29 02:08:05;;;;;;;16.77;8.32;;;;;;;;;;4972904;28;20022;-62
2023/10/29 02:10:30;;;;;;;14.23;8.55;;;;;;;;;;4974147;28;20022;-63
2023/10/29 02:12:56;;;;;;;11.35;7.00;;;;;;;;;;4974081;28;20161;-63
2023/10/29 02:15:21;;;;;;;13.80;7.28;;;;;;;;;;4974038;28;20038;-62
2023/10/29 02:17:47;;;;;;;14.38;8.55;;;;;;;;;;4972709;28;20030;-63
2023/10/29 02:20:12;;;;;;;15.23;7.28;;;;;;;;;;4974027;28;20400;-65
2023/10/29 02:22:37;;;;;;;14.90;8.55;;;;;;;;;;4972727;28;20484;-64
2023/10/29 02:25:03;;;;;;;14.07;8.15;;;;;;;;;;4973928;28;20027;-63
2023/10/29 02:27:29;;;;;;;13.32;6.90;;;;;;;;;;4972778;28;20029;-65
2023/10/29 02:29:54;;;;;;;15.85;9.10;;;;;;;;;;4973503;28;20027;-64
2023/10/29 02:32:20;;;;;;;16.45;8.73;;;;;;;;;;4973934;28;20361;-64
2023/10/29 02:34:45;;;;;;;17.85;9.07;;;;;;;;;;4973775;28;20030;-65
2023/10/29 02:37:11;;;;;;;14.73;9.00;;;;;;;;;;4970916;28;20453;-64
2023/10/29 02:39:36;;;;;;;16.50;8.82;;;;;;;;;;4973790;28;20041;-62
2023/10/29 02:42:02;;;;;;;19.77;9.95;;;;;;;;;;4973723;28;20062;-64
2023/10/29 02:44:27;;;;;;;19.83;10.15;;;;;;;;;;4973630;28;20031;-62
2023/10/29 02:46:52;;;;;;;16.42;6.65;;;;;;;;;;4973696;28;20102;-64
2023/10/29 02:49:18;;;;;;;20.20;10.68;;;;;;;;;;4973767;28;20034;-63
2023/10/29 02:51:43;;;;;;;19.50;10.27;;;;;;;;;;4973750;28;20034;-62
2023/10/29 02:54:09;;;;;;;18.23;9.52;;;;;;;;;;4973521;28;20034;-61
2023/10/29 02:56:35;;;;;;;21.77;11.18;;;;;;;;;;4973849;28;20029;-61
2023/10/29 02:59:01;;;;;;;20.15;10.18;;;;;;;;;;4973537;28;20063;-61
2023/10/29 03:01:27;;;;;;;20.08;10.57;;;;;;;;;;4973635;28;20035;-61
2023/10/29 03:03:52;;;;;;;17.77;9.40;;;;;;;;;;4973334;28;20550;-61
2023/10/29 03:06:18;;;;;;;20.05;9.05;;;;;;;;;;4975141;28;20114;-61
2023/10/29 03:08:43;;;;;;;14.60;6.80;;;;;;;;;;4977498;28;20030;-61
2023/10/29 03:11:08;;;;;;;25.15;11.15;;;;;;;;;;4977252;28;20118;-61
2023/10/29 03:13:34;;;;;;;27.73;11.27;;;;;;;;;;4977107;28;20049;-61
2023/10/29 03:16:00;;;;;;;19.90;11.15;;;;;;;;;;4977164;28;20019;-62
2023/10/29 03:18:25;;;;;;;23.88;11.75;;;;;;;;;;4977349;28;20031;-61
2023/10/29 03:20:50;;;;;;;22.95;11.63;;;;;;;;;;4977234;28;20034;-61
2023/10/29 03:23:16;;;;;;;22.45;11.63;;;;;;;;;;4977198;28;20113;-61
2023/10/29 03:25:44;;;;;;;25.80;10.80;;;;;;;;;;4977050;28;20038;-62
2023/10/29 03:28:10;;;;;;;19.83;10.57;;;;;;;;;;4976661;28;20106;-62
2023/10/29 03:30:35;;;;;;;24.55;10.95;;;;;;;;;;4976694;28;20105;-62
2023/10/29 03:33:01;;;;;;;16.95;8.50;;;;;;;;;;4977124;28;20435;-62
2023/10/29 03:35:26;;;;;;;26.13;11.82;;;;;;;;;;4976766;28;20460;-62
2023/10/29 03:37:52;;;;;;;22.60;11.05;;;;;;;;;;4974054;28;20038;-62
2023/10/29 03:40:18;;;;;;;28.60;12.00;;;;;;;;;;4976836;28;20536;-63
2023/10/29 03:42:43;;;;;;;19.83;10.50;;;;;;;;;;4976728;28;20065;-63
2023/10/29 03:45:09;;;;;;;21.98;10.13;;;;;;;;;;4976856;28;20034;-63
2023/10/29 03:47:34;;;;;;;25.70;12.15;;;;;;;;;;4976852;28;20058;-63
2023/10/29 03:50:00;;;;;;;23.30;10.95;;;;;;;;;;4976632;28;20384;-62
2023/10/29 03:52:25;;;;;;;18.05;10.07;;;;;;;;;;4975341;28;20476;-63
2023/10/29 03:54:50;;;;;;;23.92;10.98;;;;;;;;;;4976744;28;20089;-63
2023/10/29 03:57:16;;;;;;;24.98;12.70;;;;;;;;;;4976500;28;20495;-62
2023/10/29 03:59:41;;;;;;;14.10;8.43;;;;;;;;;;4976616;28;20027;-63
2023/10/29 04:02:07;;;;;;;24.00;13.60;;;;;;;;;;4976481;28;20023;-62
2023/10/29 04:04:33;;;;;;;24.90;12.82;;;;;;;;;;4976161;28;20504;-62
2023/10/29 04:06:59;;;;;;;21.23;11.32;;;;;;;;;;4976365;28;20086;-62
2023/10/29 04:09:24;;;;;;;24.38;12.77;;;;;;;;;;4976376;28;20027;-62
2023/10/29 04:11:49;;;;;;;24.05;12.88;;;;;;;;;;4976174;28;20436;-62
2023/10/29 04:14:15;;;;;;;22.17;10.60;;;;;;;;;;4976179;28;20030;-62
2023/10/29 04:16:40;;;;;;;19.00;9.68;;;;;;;;;;4976035;28;20037;-64
2023/10/29 04:19:06;;;;;;;27.05;11.63;;;;;;;;;;4974889;28;20039;-61
2023/10/29 04:21:31;;;;;;;21.17;10.48;;;;;;;;;;4974908;28;20073;-63
2023/10/29 04:23:57;;;;;;;23.17;11.45;;;;;;;;;;4976068;28;20336;-62
2023/10/29 04:26:22;;;;;;;15.05;8.27;;;;;;;;;;4975753;28;20026;-63
2023/10/29 04:28:48;;;;;;;14.95;8.32;;;;;;;;;;4975956;28;20031;-62
2023/10/29 04:31:13;;;;;;;12.88;7.10;;;;;;;;;;4975731;28;20022;-62
2023/10/29 04:33:38;;;;;;;19.08;8.82;;;;;;;;;;4975924;28;20434;-62
2023/10/29 04:36:05;;;;;;;18.83;10.68;;;;;;;;;;4975812;28;20027;-62
2023/10/29 04:38:31;;;;;;;18.52;9.57;;;;;;;;;;4971678;28;20035;-62
2023/10/29 04:40:56;;;;;;;18.20;9.32;;;;;;;;;;4975550;28;20499;-61
2023/10/29 04:43:22;;;;;;;17.95;8.93;;;;;;;;;;4975818;28;20023;-63
2023/10/29 04:45:47;;;;;;;19.70;8.82;;;;;;;;;;4975750;28;20404;-61
2023/10/29 04:48:13;;;;;;;16.70;9.43;;;;;;;;;;4975540;28;20061;-61
2023/10/29 04:50:39;;;;;;;12.27;6.20;;;;;;;;;;4975543;28;20037;-62
2023/10/29 04:53:04;;;;;;;15.45;9.02;;;;;;;;;;4975504;28;20407;-63
2023/10/29 04:55:30;;;;;;;15.15;9.00;;;;;;;;;;4975187;28;20085;-61
2023/10/29 04:57:56;;;;;;;17.88;8.38;;;;;;;;;;4975479;28;20412;-62
2023/10/29 05:00:22;;;;;;;9.02;6.40;;;;;;;;;;4975302;28;20030;-62
2023/10/29 05:02:47;;;;;;;12.88;6.53;;;;;;;;;;4975374;28;20432;-61
2023/10/29 05:05:13;;;;;;;13.52;7.97;;;;;;;;;;4974199;28;20077;-62
2023/10/29 05:07:38;;;;;;;15.13;8.15;;;;;;;;;;4974373;28;20063;-63
2023/10/29 05:10:05;;;;;;;14.52;7.70;;;;;;;;;;4973957;28;20112;-63
2023/10/29 05:12:30;;;;;;;13.73;7.50;;;;;;;;;;4974106;28;20374;-63
2023/10/29 05:14:56;;;;;;;14.90;7.60;;;;;;;;;;4974235;28;20038;-62
2023/10/29 05:17:21;;;;;;;10.77;6.55;;;;;;;;;;4974287;28;20023;-63
2023/10/29 05:19:47;;;;;;;12.07;6.47;;;;;;;;;;4974310;28;20034;-63
2023/10/29 05:22:12;;;;;;;12.90;6.50;;;;;;;;;;4974124;28;20436;-62
2023/10/29 05:24:37;;;;;;;12.55;7.13;;;;;;;;;;4973920;28;20122;-62
2023/10/29 05:27:03;;;;;;;14.13;7.70;;;;;;;;;;4974131;28;20027;-62
2023/10/29 05:29:29;;;;;;;11.90;6.72;;;;;;;;;;4973112;28;20027;-62
2023/10/29 05:31:54;;;;;;;14.88;7.82;;;;;;;;;;4973922;28;20531;-62
2023/10/29 05:34:20;;;;;;;12.82;6.40;;;;;;;;;;4973906;28;20054;-62
2023/10/29 05:36:45;;;;;;;9.60;5.00;;;;;;;;;;4971182;28;20513;-63
2023/10/29 05:39:11;;;;;;;16.17;6.28;;;;;;;;;;4973690;28;20546;-63
2023/10/29 05:41:36;;;;;;;12.65;4.18;;;;;;;;;;4973984;28;20023;-63
2023/10/29 05:44:02;;;;;;;11.27;6.22;;;;;;;;;;4973759;28;20085;-62
2023/10/29 05:46:27;;;;;;;13.45;6.55;;;;;;;;;;4973818;28;20030;-61
2023/10/29 05:48:53;;;;;;;13.32;7.22;;;;;;;;;;4973782;28;20034;-61
2023/10/29 05:51:19;;;;;;;12.93;6.53;;;;;;;;;;4973830;28;20519;-64
2023/10/29 05:53:45;;;;;;;8.75;5.35;;;;;;;;;;4973527;28;20495;-63
2023/10/29 05:56:10;;;;;;;13.63;5.80;;;;;;;;;;4973513;28;20027;-62
2023/10/29 05:58:35;;;;;;;11.88;6.30;;;;;;;;;;4972250;28;20468;-61
2023/10/29 06:01:01;;;;;;;9.65;5.45;;;;;;;;;;4973719;28;20035;-63
2023/10/29 06:03:27;;;;;;;9.02;5.96;;;;;;;;;;4922370;28;1482010;-62
2023/10/29 06:05:54;;;;;;;11.63;7.22;;;;;;;;;;4974204;28;20026;-63
2023/10/29 06:08:21;;;;;;;11.88;5.78;;;;;;;;;;4973824;28;20485;-62
2023/10/29 06:10:47;;;;;;;10.05;5.60;;;;;;;;;;4974171;28;20480;-61
2023/10/29 06:13:12;;;;;;;8.38;5.07;;;;;;;;;;4974083;28;20081;-61
2023/10/29 06:15:37;;;;;;;7.72;5.28;;;;;;;;;;4974054;28;20033;-62
2023/10/29 06:18:04;;;;;;;10.23;5.57;;;;;;;;;;4973895;28;20027;-61
2023/10/29 06:20:30;;;;;;;10.15;5.78;;;;;;;;;;4974278;28;20027;-61
2023/10/29 06:22:55;;;;;;;9.00;5.28;;;;;;;;;;4973862;28;20419;-62
2023/10/29 06:25:20;;;;;;;5.78;3.80;;;;;;;;;;4973899;28;20031;-61
2023/10/29 06:27:46;;;;;;;6.60;4.20;;;;;;;;;;4974074;28;20031;-61
2023/10/29 06:30:12;;;;;;;8.23;3.47;;;;;;;;;;4972402;28;20027;-61
2023/10/29 06:32:37;;;;;;;12.68;6.07;;;;;;;;;;4973759;28;20109;-61
2023/10/29 06:35:03;;;;;;;10.05;5.00;;;;;;;;;;4973699;28;20384;-61
2023/10/29 06:37:29;;;;;;;11.68;6.60;;;;;;;;;;4970696;28;20026;-61
2023/10/29 06:39:55;;;;;;;11.15;6.32;;;;;;;;;;4973371;28;20031;-63
2023/10/29 06:42:20;;;;;;;23.30;14.10;;;;;;;;;;4973338;28;20035;-61
2023/10/29 06:44:46;;;;;;;17.00;9.60;;;;;;;;;;4973730;28;20034;-61
2023/10/29 06:47:11;;;;;;;11.07;7.25;;;;;;;;;;4973618;28;20031;-62
2023/10/29 06:49:37;;;;;;;8.85;4.93;;;;;;;;;;4973574;28;20030;-60
2023/10/29 06:52:02;;;;;;;10.50;4.60;;;;;;;;;;4973276;28;20515;-61
2023/10/29 06:54:28;;;;;;;7.20;3.85;;;;;;;;;;4973769;28;20023;-61
2023/10/29 06:56:53;;;;;;;10.35;4.28;;;;;;;;;;4973582;28;20023;-61
2023/10/29 06:59:19;;;;;;;6.13;3.05;;;;;;;;;;4973765;28;20105;-61
2023/10/29 07:01:45;;;;;;;7.10;3.53;;;;;;;;;;4973736;28;20147;-61
2023/10/29 07:04:11;;;;;;;8.13;4.20;;;;;;;;;;4973100;28;20035;-61
2023/10/29 07:06:36;;;;;;;6.57;3.45;;;;;;;;;;4972203;28;20334;-60
2023/10/29 07:09:03;;;;;;;6.53;4.43;;;;;;;;;;4973614;28;20102;-60
2023/10/29 07:11:29;;;;;;;5.53;3.67;;;;;;;;;;4973507;28;20030;-62
2023/10/29 07:13:55;;;;;;;9.25;4.07;;;;;;;;;;4973535;28;20038;-60
2023/10/29 07:16:20;;;;;;;8.13;3.78;;;;;;;;;;4973555;28;20102;-61
2023/10/29 07:18:46;;;;;;;4.50;2.63;;;;;;;;;;4973493;28;20085;-63
2023/10/29 07:21:11;;;;;;;6.95;3.70;;;;;;;;;;4973354;28;20050;-61
2023/10/29 07:23:37;;;;;;;8.13;4.40;;;;;;;;;;4973543;28;20436;-61
2023/10/29 07:26:02;;;;;;;7.82;4.05;;;;;;;;;;4973273;28;20022;-62
2023/10/29 07:28:28;;;;;;;9.73;4.90;;;;;;;;;;4973663;28;20106;-63
2023/10/29 07:30:55;;;;;;;7.25;3.38;;;;;;;;;;4973006;28;20081;-61
2023/10/29 07:33:21;;;;;;;9.60;4.00;;;;;;;;;;4973234;28;20041;-62
2023/10/29 07:35:46;;;;;;;6.28;3.63;;;;;;;;;;4972993;28;20145;-61
2023/10/29 07:38:12;;;;;;;7.90;4.22;;;;;;;;;;4970164;28;20038;-62
2023/10/29 07:40:38;;;;;;;6.20;3.35;;;;;;;;;;4973267;28;20023;-63
2023/10/29 07:43:04;;;;;;;12.20;4.07;;;;;;;;;;4973246;28;20035;-61
2023/10/29 07:45:30;;;;;;;7.57;4.10;;;;;;;;;;4973182;28;20085;-61
2023/10/29 07:47:55;;;;;;;11.30;5.30;;;;;;;;;;4973153;28;20093;-62
2023/10/29 07:50:21;;;;;;;10.30;4.55;;;;;;;;;;4972961;28;20078;-61
2023/10/29 07:52:47;;;;;;;7.70;3.88;;;;;;;;;;4975145;28;20061;-62
2023/10/29 07:55:13;;;;;;;7.03;3.40;;;;;;;;;;4976561;28;20058;-63
2023/10/29 07:57:38;;;;;;;7.68;2.92;;;;;;;;;;4976710;28;20113;-63
2023/10/29 08:00:15;;;;;;;5.80;3.38;;;;;;;;;;4976573;28;20019;-61
2023/10/29 08:02:44;;;;;;;8.18;3.72;;;;;;;;;;4976562;28;20034;-61
2023/10/29 08:05:12;;;;;;;10.27;5.97;;;;;;;;;;4975983;28;20392;-61
2023/10/29 08:07:42;;;;;;;8.38;3.25;;;;;;;;;;4976367;28;20125;-61
2023/10/29 08:10:08;;;;;;;8.63;3.53;;;;;;;;;;4976224;28;20464;-61
2023/10/29 08:12:34;;;;;;;7.38;3.45;;;;;;;;;;4976268;28;20035;-63
2023/10/29 08:15:00;;;;;;;7.18;3.45;;;;;;;;;;4971939;28;20094;-62
2023/10/29 08:17:25;;;;;;;8.07;4.53;;;;;;;;;;4966180;28;20110;-61
2023/10/29 08:19:52;;;;;;;7.97;4.70;;;;;;;;;;4964973;28;20050;-61
2023/10/29 08:22:17;;;;;;;8.63;3.67;;;;;;;;;;4965010;28;20045;-61
2023/10/29 08:24:43;;;;;;;3.83;2.42;;;;;;;;;;4965991;28;20468;-61
2023/10/29 08:27:09;;;;;;;10.48;3.67;;;;;;;;;;4972211;28;20058;-62
2023/10/29 08:29:41;;;;;;;6.43;2.80;;;;;;;;;;4975652;28;20054;-62
2023/10/29 08:32:07;;;;;;;4.78;2.90;;;;;;;;;;4963321;28;20031;-62
2023/10/29 08:34:32;;;;;;;8.95;3.50;;;;;;;;;;4964708;28;20027;-62
2023/10/29 08:36:58;;;;;;;8.15;3.53;;;;;;;;;;4972939;28;20058;-62
2023/10/29 08:39:23;;;;;;;10.30;4.70;;;;;;;;;;4975837;28;20543;-62
2023/10/29 08:41:49;;;;;;;10.10;3.63;;;;;;;;;;4973080;28;20550;-62
2023/10/29 08:44:15;;;;;;;5.20;2.47;;;;;;;;;;4975405;28;20027;-62
2023/10/29 08:46:43;;;;;;;8.70;3.28;;;;;;;;;;4974239;28;20073;-62
2023/10/29 08:49:08;;;;;;;5.45;1.98;;;;;;;;;;4975530;28;20065;-62
2023/10/29 08:51:34;;;;;;;7.65;2.95;;;;;;;;;;4975363;28;20066;-62
2023/10/29 08:54:02;;;;;;;7.43;2.17;;;;;;;;;;4975665;28;20022;-62
2023/10/29 08:56:29;;;;;;;8.48;2.90;;;;;;;;;;4975317;28;20027;-62
2023/10/29 08:58:54;;;;;;;7.90;2.80;;;;;;;;;;4975341;28;20117;-62
2023/10/29 09:01:20;;;;;;;6.25;3.00;;;;;;;;;;4968569;28;20059;-62
2023/10/29 09:03:46;;;;;;;7.18;3.13;;;;;;;;;;4967834;28;20046;-63
2023/10/29 09:06:12;;;;;;;7.70;3.53;;;;;;;;;;4974863;28;20030;-62
2023/10/29 09:08:38;;;;;;;8.55;2.95;;;;;;;;;;4975291;28;20034;-62
2023/10/29 09:11:03;;;;;;;5.63;2.80;;;;;;;;;;4975270;28;20105;-62
2023/10/29 09:13:30;;;;;;;4.00;2.17;;;;;;;;;;4975123;28;20019;-62
2023/10/29 09:15:55;;;;;;;4.05;1.80;;;;;;;;;;4974649;28;20022;-62
2023/10/29 09:18:21;;;;;;;5.65;2.70;;;;;;;;;;4975010;28;20031;-62
2023/10/29 09:20:46;;;;;;;3.75;2.72;;;;;;;;;;4975189;28;20384;-62
2023/10/29 09:23:15;;;;;;;3.92;1.88;;;;;;;;;;4975001;28;20384;-62
2023/10/29 09:25:47;;;;;;;3.38;2.00;;;;;;;;;;4974964;28;20030;-62
2023/10/29 09:28:13;;;;;;;3.10;1.98;;;;;;;;;;4973516;28;20085;-62
2023/10/29 09:30:39;;;;;;;6.03;2.30;;;;;;;;;;4974346;28;20543;-63
2023/10/29 09:33:05;;;;;;;5.35;2.15;;;;;;;;;;4974980;28;20030;-63
2023/10/29 09:35:32;;;;;;;4.57;1.92;;;;;;;;;;4974651;28;20560;-62
2023/10/29 09:37:58;;;;;;;4.18;2.08;;;;;;;;;;4971730;28;20023;-63
2023/10/29 09:40:24;;;;;;;5.60;1.90;;;;;;;;;;4974495;28;20042;-63
2023/10/29 09:42:59;;;;;;;4.70;2.13;;;;;;;;;;4974658;28;20480;-62
2023/10/29 09:45:26;;;;;;;2.17;1.48;;;;;;;;;;4974402;28;20089;-62
2023/10/29 09:47:53;;;;;;;2.58;1.65;;;;;;;;;;4974697;28;20085;-62
2023/10/29 09:50:19;;;;;;;5.47;2.22;;;;;;;;;;4974408;28;20310;-63
2023/10/29 09:52:52;;;;;;;6.53;2.28;;;;;;;;;;4974401;28;20612;-63
2023/10/29 09:55:20;;;;;;;4.03;2.30;;;;;;;;;;4974394;28;20031;-62
2023/10/29 09:57:46;;;;;;;5.65;2.15;;;;;;;;;;4974539;28;20058;-63
2023/10/29 10:00:13;;;;;;;5.50;1.90;;;;;;;;;;4974045;28;20046;-63
2023/10/29 10:02:57;;;;;;;4.13;1.90;;;;;;;;;;4974271;28;20031;-62
2023/10/29 10:05:25;;;;;;;3.90;1.77;;;;;;;;;;4973862;28;20546;-63
2023/10/29 10:07:52;;;;;;;4.55;1.85;;;;;;;;;;4974305;28;20034;-62
2023/10/29 10:10:19;;;;;;;5.93;2.05;;;;;;;;;;4974009;28;20420;-64
2023/10/29 10:12:49;;;;;;;3.08;1.42;;;;;;;;;;4973936;28;20035;-62
2023/10/29 10:15:19;;;;;;;6.32;1.55;;;;;;;;;;4973539;28;20375;-62
2023/10/29 10:17:56;;;;;;;6.15;1.80;;;;;;;;;;4966557;28;20053;-63
2023/10/29 10:20:22;;;;;;;3.63;1.77;;;;;;;;;;4959742;28;20114;-62
2023/10/29 10:22:58;;;;;;;5.07;1.70;;;;;;;;;;4960679;28;20035;-62
2023/10/29 10:25:25;;;;;;;4.10;1.60;;;;;;;;;;4961651;28;20050;-63
2023/10/29 10:27:53;;;;;;;4.18;1.55;;;;;;;;;;4971817;28;20027;-64
2023/10/29 10:30:26;;;;;;;3.53;1.50;;;;;;;;;;4964390;28;20098;-64
2023/10/29 10:32:53;;;;;;;3.88;1.90;;;;;;;;;;4960941;28;20063;-61
2023/10/29 10:35:18;;;;;;;4.85;1.85;;;;;;;;;;4968929;28;20030;-61
2023/10/29 10:37:54;;;;;;;6.47;2.30;;;;;;;;;;4973632;28;20039;-61
2023/10/29 10:40:24;;;;;;;4.70;1.90;;;;;;;;;;4973655;28;20031;-63
2023/10/29 10:42:56;;;;;;;4.30;2.10;;;;;;;;;;4973498;28;20038;-63
2023/10/29 10:45:29;;;;;;;4.57;2.10;;;;;;;;;;4966412;28;20078;-64
2023/10/29 10:47:56;;;;;;;3.88;2.45;;;;;;;;;;4963023;28;20358;-64
2023/10/29 10:50:24;;;;;;;4.50;2.53;;;;;;;;;;4966453;28;20458;-64
2023/10/29 10:52:51;;;;;;;4.90;2.00;;;;;;;;;;4962566;28;20035;-65
2023/10/29 10:55:21;;;;;;;4.68;2.13;;;;;;;;;;4963860;28;20031;-64
2023/10/29 10:57:47;;;;;;;;;;;;;;;;;;4964852;28;20321;-65
2023/10/29 11:00:14;;;;;;;5.60;1.90;;;;;;;;;;4962644;28;19947;-65
2023/10/29 11:02:40;;;;;;;5.25;2.15;;;;;;;;;;4963471;28;20421;-64
2023/10/29 11:05:10;;;;;;;3.03;1.40;;;;;;;;;;4964092;28;20102;-64
2023/10/29 11:07:41;;;;;;;5.05;1.75;;;;;;;;;;4962939;28;20034;-62
2023/10/29 11:10:10;;;;;;;3.92;1.75;;;;;;;;;;4962565;28;20030;-64
2023/10/29 11:12:36;;;;;;;4.47;1.65;;;;;;;;;;4962714;28;20429;-63
2023/10/29 11:15:15;;;;;;;6.75;2.00;;;;;;;;;;4962977;28;20029;-64
2023/10/29 11:18:01;;;;;;;6.50;2.33;;;;;;;;;;4963687;28;20039;-64
2023/10/29 11:20:39;;;;;;;6.38;2.50;;;;;;;;;;4964988;28;20042;-63
2023/10/29 11:23:13;;;;;;;7.32;2.85;;;;;;;;;;4963796;28;20082;-65
2023/10/29 11:25:39;;;;;;;6.10;2.33;;;;;;;;;;4963083;28;20035;-62
2023/10/29 11:28:05;;;;;;;6.00;2.00;;;;;;;;;;4945597;28;20111;-62
2023/10/29 11:30:31;;;;;;;4.50;1.75;;;;;;;;;;4977103;28;20044;-62
2023/10/29 11:33:06;;;;;;;6.85;2.30;;;;;;;;;;4976857;28;20397;-62
2023/10/29 11:35:32;;;;;;;6.50;2.40;;;;;;;;;;4976703;28;20045;-64
2023/10/29 11:38:00;;;;;;;2.95;1.70;;;;;;;;;;4976909;28;20035;-62
2023/10/29 11:40:25;;;;;;;4.63;1.77;;;;;;;;;;4976736;28;20031;-62
2023/10/29 11:42:51;;;;;;;4.20;1.77;;;;;;;;;;4976539;28;20037;-62
2023/10/29 11:45:28;;;;;;;7.20;2.17;;;;;;;;;;4976550;28;20023;-62
2023/10/29 11:48:06;;;;;;;4.75;1.85;;;;;;;;;;4976609;28;20041;-62
2023/10/29 11:50:38;;;;;;;4.25;1.70;;;;;;;;;;4976689;28;20030;-62
2023/10/29 11:53:04;;;;;;;3.45;1.55;;;;;;;;;;4976488;28;20053;-63
2023/10/29 11:55:38;;;;;;;4.20;1.80;;;;;;;;;;4976457;28;20034;-63
2023/10/29 11:58:05;;;;;;;2.78;1.70;;;;;;;;;;4976579;28;20049;-64
2023/10/29 12:00:41;;;;;;;2.53;1.23;;;;;;;;;;4976896;28;20030;-61
2023/10/29 12:03:11;;;;;;;4.38;1.42;;;;;;;;;;4974865;28;20034;-61
2023/10/29 12:05:37;;;;;;;5.47;2.22;;;;;;;;;;4974202;28;20070;-61
2023/10/29 12:08:03;;;;;;;4.82;1.67;;;;;;;;;;4974971;28;20030;-64
2023/10/29 12:10:29;;;;;;;3.00;1.40;;;;;;;;;;4974718;28;20488;-63
2023/10/29 12:12:56;;;;;;;3.65;1.40;;;;;;;;;;4974597;28;20042;-63
2023/10/29 12:15:24;;;;;;;3.45;1.90;;;;;;;;;;4975357;28;20075;-64
2023/10/29 12:17:49;;;;;;;4.93;2.08;;;;;;;;;;4975953;28;20019;-65
2023/10/29 12:20:26;;;;;;;3.65;1.75;;;;;;;;;;4976304;28;20023;-63
2023/10/29 12:22:58;;;;;;;4.22;1.88;;;;;;;;;;4976443;28;20552;-62
2023/10/29 12:25:24;;;;;;;2.63;1.35;;;;;;;;;;4975858;28;20507;-63
2023/10/29 12:27:51;;;;;;;4.68;1.50;;;;;;;;;;4976187;28;20034;-62
2023/10/29 12:30:56;;;;;;;2.38;1.30;;;;;;;;;;4975862;28;20027;-62
2023/10/29 12:33:25;;;;;;;5.40;1.80;;;;;;;;;;4935435;29;20413;-62
2023/10/29 12:35:52;;;;;;;4.85;1.65;;;;;;;;;;4935403;29;20114;-62
2023/10/29 12:38:19;;;;;;;2.83;1.40;;;;;;;;;;4918665;29;20047;-61
2023/10/29 12:41:05;;;;;;;6.20;1.50;;;;;;;;;;4926609;29;20490;-62
2023/10/29 12:43:39;;;;;;;4.15;1.40;;;;;;;;;;4935426;29;20498;-61
2023/10/29 12:46:12;;;;;;;3.92;1.60;;;;;;;;;;4935303;29;20031;-61
2023/10/29 12:48:58;;;;;;;3.45;1.60;;;;;;;;;;4935356;29;20031;-61
2023/10/29 12:51:32;;;;;;;2.50;1.40;;;;;;;;;;4934645;29;20036;-62
2023/10/29 12:54:14;;;;;;;4.20;1.65;;;;;;;;;;4934941;29;20034;-62
2023/10/29 12:56:56;;;;;;;4.15;1.45;;;;;;;;;;4935273;29;20461;-62
2023/10/29 12:59:22;;;;;;;3.67;1.50;;;;;;;;;;4935103;29;20034;-62
2023/10/29 13:01:52;;;;;;;4.50;1.90;;;;;;;;;;4935062;29;20402;-63
2023/10/29 13:04:19;;;;;;;4.07;1.65;;;;;;;;;;4958820;28;20085;-63
2023/10/29 13:06:44;;;;;;;2.75;1.40;;;;;;;;;;4975594;28;20023;-62
2023/10/29 13:09:12;;;;;;;5.80;1.63;;;;;;;;;;4975339;28;20085;-60
2023/10/29 13:11:39;;;;;;;4.75;1.70;;;;;;;;;;4975522;28;20786;-61
2023/10/29 13:14:04;;;;;;;2.75;1.48;;;;;;;;;;4975410;28;20030;-61
2023/10/29 13:16:30;;;;;;;4.40;1.92;;;;;;;;;;4975322;28;20030;-61
2023/10/29 13:18:55;;;;;;;2.40;1.33;;;;;;;;;;4975426;28;20023;-61
2023/10/29 13:21:21;;;;;;;3.15;1.45;;;;;;;;;;4974009;28;20447;-61
2023/10/29 13:23:46;;;;;;;4.25;1.80;;;;;;;;;;4975065;28;20022;-61
2023/10/29 13:26:12;;;;;;;4.43;1.75;;;;;;;;;;4975180;28;20031;-60
2023/10/29 13:28:37;;;;;;;5.25;1.52;;;;;;;;;;4974997;28;20179;-61
2023/10/29 13:31:03;;;;;;;5.15;1.58;;;;;;;;;;4957923;28;20027;-60
2023/10/29 13:33:29;;;;;;;3.25;1.60;;;;;;;;;;4955746;28;20034;-63
2023/10/29 13:35:54;;;;;;;3.70;1.60;;;;;;;;;;4955676;28;20046;-63
2023/10/29 13:38:20;;;;;;;2.42;1.27;;;;;;;;;;4955638;28;20536;-63
2023/10/29 13:40:45;;;;;;;2.50;1.42;;;;;;;;;;4955656;28;20038;-63
2023/10/29 13:43:11;;;;;;;3.05;1.48;;;;;;;;;;4955751;28;20541;-63
2023/10/29 13:45:38;;;;;;;3.35;1.60;;;;;;;;;;4955447;28;20031;-63
2023/10/29 13:48:04;;;;;;;3.80;2.13;;;;;;;;;;4955473;28;20098;-63
2023/10/29 13:50:30;;;;;;;10.50;3.33;;;;;;;;;;4954963;28;20027;-63
2023/10/29 13:52:57;;;;;;;5.13;2.40;;;;;;;;;;4954956;28;20039;-63
2023/10/29 13:55:23;;;;;;;6.13;2.63;;;;;;;;;;4955203;28;20031;-63
2023/10/29 13:57:48;;;;;;;5.75;2.92;;;;;;;;;;4955387;28;20046;-60
2023/10/29 14:00:14;;;;;;;5.82;3.50;;;;;;;;;;4955234;28;20393;-60
2023/10/29 14:02:40;;;;;;;7.20;3.22;;;;;;;;;;4955236;28;20126;-61
2023/10/29 14:05:06;;;;;;;6.28;3.22;;;;;;;;;;4967173;28;20529;-60
2023/10/29 14:07:32;;;;;;;6.95;2.90;;;;;;;;;;4974284;28;20392;-63
2023/10/29 14:09:58;;;;;;;5.68;2.42;;;;;;;;;;4974284;28;20054;-61
2023/10/29 14:12:24;;;;;;;5.78;1.63;;;;;;;;;;4974515;28;20105;-61
2023/10/29 14:14:50;;;;;;;6.90;2.28;;;;;;;;;;4974342;28;20031;-61
2023/10/29 14:17:16;;;;;;;5.18;2.00;;;;;;;;;;4972998;28;20376;-61
2023/10/29 14:19:42;;;;;;;5.00;2.05;;;;;;;;;;4974265;28;20030;-61
2023/10/29 14:22:08;;;;;;;4.57;1.70;;;;;;;;;;4973865;28;20446;-61
2023/10/29 14:24:33;;;;;;;4.32;2.03;;;;;;;;;;4974182;28;20034;-62
2023/10/29 14:26:58;;;;;;;3.90;1.70;;;;;;;;;;4974249;28;20035;-61
2023/10/29 14:29:24;;;;;;;6.10;1.85;;;;;;;;;;4969799;28;20477;-62
2023/10/29 14:31:50;;;;;;;5.15;1.80;;;;;;;;;;4954839;28;20038;-62
2023/10/29 14:34:15;;;;;;;3.42;1.90;;;;;;;;;;4960785;28;20377;-60